Brisbane, Queensland, Australia, Latitude 27°S 23' 52", Longitude 152° E 55' 35", Elevation 76 m

Sun 11 Apr 2021 8:20:02 am: Temperature: 21.8 °C, Humidity: 65 %, Wind speed: 1 km/h, Wind Gust: 4 km/h, Rain today: 0.0 mm, MSLP: 1010.3 hPa

Website under continual development from 11 years of weather data. Please contact us if you find issues or like to provide feedback.

Recent Observations

This page presents the weather data from the last 72 hours at 30 minute intervals.

Last updated at 8:20:02 am AEST on Sun 11 April 2021.

Last 24 hours
Date/Time(AEST) Temp. ( °C) Dew Point ( °C) Relative Humidity (%) Apparent Temp. ( °C) Wind Direction Wind Speed (kph) Wind Gust (kph) Wind Speed (kts) Wind Gust (kts) MSL Pressure (hPa) Rain since midnight (mm)
11/04 8:20 am 21.8 14.9 65 23.3 SW 1 4 1 2 1010.3 0.0
11/04 7:50 am 21.1 14.9 68 22 SW 1 6 1 3 1009.8 0.0
11/04 7:20 am 19.0 14.3 74 20.4 CALM 0 0 0 0 1009.3 0.0
11/04 6:50 am 18.3 15.3 83 20 CALM 0 0 0 0 1009.0 0.0
11/04 6:20 am 18.1 15.4 84 19.8 CALM 0 0 0 0 1008.6 0.0
11/04 5:50 am 18.0 15.3 84 19.7 CALM 0 0 0 0 1008.3 0.0
11/04 5:20 am 17.8 15.2 85 19.5 CALM 0 0 0 0 1008.0 0.0
11/04 4:50 am 17.7 15.1 84 19.3 CALM 0 0 0 0 1007.6 0.0
11/04 4:20 am 17.4 14.3 82 18.8 CALM 0 0 0 0 1007.2 0.0
11/04 3:50 am 17.1 14.7 86 18.6 CALM 0 0 0 0 1007.1 0.0
11/04 3:20 am 17.1 14.6 86 18.6 CALM 0 0 0 0 1007.2 0.0
11/04 2:50 am 16.9 14.1 83 18.2 CALM 0 0 0 0 1007.4 0.0
11/04 2:20 am 16.9 13.8 82 18.1 CALM 0 0 0 0 1007.6 0.0
11/04 1:50 am 16.9 14.1 83 18.2 CALM 0 0 0 0 1007.8 0.0
11/04 1:20 am 17.1 14.3 84 18.5 CALM 0 0 0 0 1008.1 0.0
11/04 12:50 am 17.4 14.2 82 18.8 CALM 0 0 0 0 1008.0 0.0
11/04 12:20 am 17.7 14.4 81 19.1 WSW 0 4 0 2 1008.2 0.0
10/04 11:50 pm 18.1 14.6 80 19.6 CALM 0 2 0 1 1008.3 0.0
10/04 11:20 pm 18.4 14.1 76 19 W 1 4 1 2 1008.0 0.0
10/04 10:50 pm 18.6 14.7 78 20.1 CALM 0 0 0 0 1008.0 0.0
10/04 10:20 pm 19.3 14.6 74 20.8 CALM 0 0 0 0 1008.0 0.0
10/04 9:50 pm 19.9 14.4 70 21.3 CALM 0 0 0 0 1008.2 0.0
10/04 9:20 pm 20.4 14.6 69 21.8 CALM 0 0 0 0 1008.2 0.0
10/04 8:50 pm 20.7 14.8 69 22.2 CALM 0 0 0 0 1008.0 0.0
10/04 8:20 pm 21.1 15.2 69 22.8 CALM 0 0 0 0 1007.8 0.0
10/04 7:50 pm 21.8 15.6 68 23.6 CALM 0 0 0 0 1007.8 0.0
10/04 7:20 pm 23.1 16.1 65 25.1 CALM 0 0 0 0 1007.5 0.0
10/04 6:50 pm 24.6 16.2 59 26.6 CALM 0 0 0 0 1007.0 0.0
10/04 6:20 pm 26.9 14.6 47 28.4 CALM 0 0 0 0 1006.8 0.0
10/04 5:50 pm 28.2 12.8 39 29.1 CALM 0 4 0 2 1006.6 0.0
10/04 5:20 pm 29.7 13.1 36 30.6 WSW 0 8 0 4 1005.8 0.0
10/04 4:50 pm 30.8 13.1 34 31.8 W 0 8 0 4 1005.8 0.0
10/04 4:20 pm 31.9 14.4 35 31.9 SW 2 14 1 8 1005.4 0.0
10/04 3:50 pm 32.4 13.6 32 32.1 S 2 14 1 8 1004.8 0.0
10/04 3:20 pm 33.2 14.9 33 34.7 W 0 2 0 1 1004.7 0.0
10/04 2:50 pm 32.8 15.9 36 33.3 SW 2 12 1 6 1004.8 0.0
10/04 2:20 pm 33.6 15.4 34 33.3 WSW 3 19 2 10 1005.0 0.0
10/04 1:50 pm 33.3 14.7 33 31.4 WSW 5 21 3 11 1005.5 0.0
10/04 1:20 pm 33.6 15.7 34 32.6 W 4 23 2 12 1005.5 0.0
10/04 12:50 pm 33.1 13.9 32 31.6 WSW 4 17 2 9 1005.9 0.0
10/04 12:20 pm 32.7 14.7 34 32.1 W 3 14 2 8 1006.3 0.0
10/04 11:50 am 32.2 14.5 34 30.8 WNW 4 15 2 8 1006.7 0.0
10/04 11:20 am 32.3 15.3 36 33.3 W 1 12 1 6 1007.3 0.0
10/04 10:50 am 31.6 15.3 37 31.9 W 2 17 1 9 1007.6 0.0
10/04 10:20 am 31.2 16.7 42 32.8 WSW 1 12 1 6 1007.7 0.0
10/04 9:50 am 30.3 16.2 43 32.4 CALM 0 4 0 2 1007.9 0.0
10/04 9:20 am 27.1 17.4 56 29.7 CALM 0 0 0 0 1008.2 0.0
10/04 8:50 am 24.1 17.9 69 26.9 CALM 0 0 0 0 1008.4 0.0
24 to 48 hours ago
Date/Time(AEST) Temp. °C Dew Point °C Relative Humidity % Appararent Temp. °C Wind Direction Wind Speed (kph) Wind Gust (kph) Wind Speed (kts) Wind Gust (kts) MSL Pressure (hPa) Rain since midnight (mm)
10/04 8:20 am 21.1 17.8 82 23.9 CALM 0 0 0 0 1008.2 0.0
10/04 7:50 am 18.2 16.8 92 20.5 CALM 0 0 0 0 1007.9 0.0
10/04 7:20 am 16.2 15.6 96 18 CALM 0 0 0 0 1007.6 0.0
10/04 6:50 am 15.3 14.6 95 16.7 CALM 0 0 0 0 1007.5 0.0
10/04 6:20 am 15.1 14.3 95 16.5 CALM 0 0 0 0 1007.0 0.0
10/04 5:50 am 15.2 14.3 95 16.6 CALM 0 0 0 0 1006.8 0.0
10/04 5:20 am 15.3 14.4 95 16.7 CALM 0 0 0 0 1006.7 0.0
10/04 4:50 am 15.4 14.7 95 16.9 CALM 0 4 0 2 1006.4 0.0
10/04 4:20 am 15.7 14.9 95 17.3 CALM 0 0 0 0 1006.0 0.0
10/04 3:50 am 15.8 15.1 95 17.4 WSW 0 4 0 2 1005.8 0.0
10/04 3:20 am 16.1 15.3 95 17.8 CALM 0 0 0 0 1005.9 0.0
10/04 2:50 am 16.3 15.5 95 18.1 CALM 0 0 0 0 1006.3 0.0
10/04 2:20 am 16.4 15.7 95 18.2 CALM 0 2 0 1 1006.4 0.0
10/04 1:50 am 16.7 15.8 95 18.6 CALM 0 0 0 0 1006.6 0.0
10/04 1:20 am 16.9 16.1 94 18.2 WSW 1 4 1 2 1006.8 0.0
10/04 12:50 am 17.2 16.3 94 19.3 CALM 0 0 0 0 1006.9 0.0
10/04 12:20 am 17.4 16.5 94 19.6 CALM 0 0 0 0 1006.9 0.0
9/04 11:50 pm 17.7 16.7 94 20 CALM 0 2 0 1 1007.1 0.0
9/04 11:20 pm 17.9 16.8 93 20.2 CALM 0 0 0 0 1007.4 0.0
9/04 10:50 pm 18.2 16.9 92 20.5 CALM 0 0 0 0 1007.4 0.0
9/04 10:20 pm 18.4 17.0 91 20.7 CALM 0 0 0 0 1007.6 0.0
9/04 9:50 pm 18.9 17.3 90 21.4 CALM 0 0 0 0 1007.8 0.0
9/04 9:20 pm 19.2 17.4 89 21.7 CALM 0 0 0 0 1007.8 0.0
9/04 8:50 pm 19.7 17.4 87 22.3 CALM 0 0 0 0 1007.6 0.0
9/04 8:20 pm 20.3 17.7 85 23 CALM 0 0 0 0 1007.3 0.0
9/04 7:50 pm 20.9 17.8 83 23.7 CALM 0 0 0 0 1007.0 0.0
9/04 7:20 pm 21.8 18.1 80 24.7 CALM 0 0 0 0 1006.7 0.0
9/04 6:50 pm 22.7 18.1 75 25.5 CALM 0 0 0 0 1006.4 0.0
9/04 6:20 pm 24.1 18.1 70 27 CALM 0 0 0 0 1006.1 0.0
9/04 5:50 pm 26.1 18.4 63 29.1 CALM 0 0 0 0 1005.5 0.0
9/04 5:20 pm 28.0 16.0 48 27.9 W 1 8 1 4 1005.1 0.0
9/04 4:50 pm 29.2 16.2 46 30.6 WSW 1 8 1 4 1005.1 0.0
9/04 4:20 pm 30.1 17.2 46 30.5 WSW 3 8 2 4 1004.8 0.0
9/04 3:50 pm 30.5 17.2 45 28.8 WSW 6 17 3 9 1004.7 0.0
9/04 3:20 pm 31.1 17.8 45 28.9 WSW 7 17 4 9 1004.6 0.0
9/04 2:50 pm 30.4 18.3 48 29.1 SW 6 17 3 9 1004.8 0.0
9/04 2:20 pm 30.6 18.5 49 30.9 W 4 14 2 8 1005.1 0.0
9/04 1:50 pm 30.6 18.8 50 31 SW 4 12 2 6 1005.5 0.0
9/04 1:20 pm 30.0 17.8 48 27.8 SSW 7 19 4 10 1005.7 0.0
9/04 12:50 pm 30.2 17.8 47 29.3 SW 5 12 3 6 1006.0 0.0
9/04 12:20 pm 29.9 18.1 49 29.2 SW 5 12 3 6 1006.5 0.0
9/04 11:50 am 29.6 18.9 53 30 SW 4 14 2 8 1007.2 0.0
9/04 11:20 am 29.1 19.8 57 27.8 W 7 14 4 8 1007.7 0.0
9/04 10:50 am 27.7 19.2 60 27.5 NW 5 8 3 4 1008.0 0.0
9/04 10:20 am 26.8 19.3 63 25.2 NW 7 17 4 9 1008.3 0.0
9/04 9:50 am 26.4 19.4 66 29.9 NNW 0 8 0 4 1008.4 0.0
9/04 9:20 am 24.6 19.1 72 27.9 CALM 0 2 0 1 1008.8 0.0
9/04 8:50 am 23.1 18.4 75 26.1 CALM 0 0 0 0 1009.1 0.0
48 to 72 hours ago
Date/Time(AEST) Temp. °C Dew Point °C Relative Humidity % Appararent Temp. °C Wind Direction Wind Speed (kph) Wind Gust (kph) Wind Speed (kts) Wind Gust (kts) MSL Pressure (hPa) Rain since midnight (mm)
9/04 8:20 am 21.1 18.1 83 23.9 CALM 0 0 0 0 1009.0 0.0
9/04 7:50 am 18.5 17.5 94 21.1 CALM 0 0 0 0 1009.0 0.0
9/04 7:20 am 17.1 16.7 97 19.3 CALM 0 0 0 0 1008.4 0.0
9/04 6:50 am 16.1 15.6 97 17.9 CALM 0 0 0 0 1007.9 0.0
9/04 6:20 am 15.8 15.2 96 17.5 CALM 0 0 0 0 1007.7 0.0
9/04 5:50 am 15.8 15.1 96 17.5 CALM 0 0 0 0 1007.6 0.0
9/04 5:20 am 16.0 15.4 96 17.7 CALM 0 0 0 0 1007.4 0.0
9/04 4:50 am 16.0 15.3 96 17.7 CALM 0 0 0 0 1007.2 0.0
9/04 4:20 am 16.1 15.4 96 17.9 CALM 0 0 0 0 1007.2 0.0
9/04 3:50 am 16.3 15.6 96 18.2 CALM 0 0 0 0 1007.2 0.0
9/04 3:20 am 16.4 15.6 95 18.2 CALM 0 0 0 0 1007.1 0.0
9/04 2:50 am 16.6 15.7 95 18.5 CALM 0 0 0 0 1007.2 0.0
9/04 2:20 am 16.8 15.9 95 18.8 CALM 0 0 0 0 1007.3 0.0
9/04 1:50 am 17.1 16.1 94 19.1 CALM 0 0 0 0 1007.4 0.0
9/04 1:20 am 17.3 16.3 94 19.4 CALM 0 0 0 0 1007.5 0.0
9/04 12:50 am 17.7 16.5 93 19.9 CALM 0 0 0 0 1007.7 0.0
9/04 12:20 am 18.1 16.8 92 20.4 CALM 0 2 0 1 1007.8 0.0
8/04 11:50 pm 18.4 16.9 91 20.7 CALM 0 2 0 1 1008.2 0.0
8/04 11:20 pm 18.5 17.1 91 20.9 CALM 0 2 0 1 1008.6 0.0
8/04 10:50 pm 18.6 17.1 91 21 CALM 0 0 0 0 1008.9 0.0
8/04 10:20 pm 18.7 17.2 91 21.2 CALM 0 4 0 2 1008.9 0.0
8/04 9:50 pm 18.8 17.4 92 21.4 CALM 0 4 0 2 1008.8 0.0
8/04 9:20 pm 19.2 17.9 92 21.9 CALM 0 2 0 1 1008.8 0.0
8/04 8:50 pm 19.4 17.9 91 22.1 CALM 0 0 0 0 1008.6 0.0
8/04 8:20 pm 19.9 18.3 90 22.8 CALM 0 0 0 0 1008.6 0.0
8/04 7:50 pm 20.4 18.6 89 23.4 CALM 0 0 0 0 1008.4 0.0
8/04 7:20 pm 21.1 18.7 86 24.2 CALM 0 2 0 1 1007.9 0.0
8/04 6:50 pm 22.1 18.9 82 25.3 CALM 0 0 0 0 1007.4 0.0
8/04 6:20 pm 23.1 19.0 78 26.4 CALM 0 0 0 0 1007.1 0.0
8/04 5:50 pm 24.1 18.7 72 25.8 SSE 2 6 1 3 1006.7 0.0
8/04 5:20 pm 24.9 18.7 68 25.1 SSE 2 12 1 6 1006.3 0.0
8/04 4:50 pm 25.9 19.2 66 27.8 S 2 12 1 6 1006.3 0.0
8/04 4:20 pm 26.2 19.9 68 25.6 S 6 14 3 8 1006.0 0.0
8/04 3:50 pm 26.2 20.0 69 29.2 ESE 1 4 1 2 1005.9 0.0
8/04 3:20 pm 27.9 20.2 63 26.8 SSE 7 15 4 8 1005.7 0.0
8/04 2:50 pm 27.3 20.4 66 28.4 S 4 12 2 6 1005.8 0.0
8/04 2:20 pm 26.2 20.2 70 26.5 S 5 14 3 8 1006.0 0.0
8/04 1:50 pm 26.3 20.8 72 29 ESE 2 6 1 3 1006.2 0.0
8/04 1:20 pm 28.6 19.6 58 26.5 SSW 8 15 4 8 1006.4 0.0
8/04 12:50 pm 28.1 19.7 60 24.6 S 10 17 5 9 1006.5 0.0
8/04 12:20 pm 28.2 20.1 62 26.4 S 8 27 4 15 1007.1 0.0
8/04 11:50 am 27.3 19.8 64 23.9 S 10 21 5 11 1007.4 0.0
8/04 11:20 am 26.9 19.8 65 24.9 S 8 15 4 8 1007.6 0.0
8/04 10:50 am 25.7 19.4 69 21.5 S 11 25 6 13 1008.1 0.0
8/04 10:20 am 25.0 19.9 74 25.9 S 4 14 2 8 1008.2 0.0
8/04 9:50 am 24.6 19.4 73 21.7 S 9 17 5 9 1008.4 0.0
8/04 9:20 am 24.3 19.4 74 20.7 S 10 23 5 12 1008.7 0.0
8/04 8:50 am 23.5 19.1 76 21.1 S 8 15 4 8 1008.8 0.0